Time;durP1;ratioP1;P1;durP2;ratioP2;P2;SDS_P1;SDS_P2;PMS_P1;PMS_P2;Temp;Humidity;BMP_temperature;BMP_pressure;BME280_temperature;BME280_humidity;BME280_pressure;Samples;Min_cycle;Max_cycle;Signal;HPM_P1;HPM_P2
2022/12/11 00:00:27;;;;;;;;;54.67;47.67;;;;;;;;5085177;28;8832;-81
2022/12/11 00:02:56;;;;;;;;;53.00;48.33;;;;;;;;5088813;28;8837;-80
2022/12/11 00:05:24;;;;;;;;;51.33;46.00;;;;;;;;5086186;28;8841;-79
2022/12/11 00:07:52;;;;;;;;;58.67;48.33;;;;;;;;5088102;28;8840;-79
2022/12/11 00:10:20;;;;;;;;;51.00;46.00;;;;;;;;5082616;28;8917;-79
2022/12/11 00:12:48;;;;;;;;;53.67;47.33;;;;;;;;5069106;28;8864;-80
2022/12/11 00:15:15;;;;;;;;;51.00;47.00;;;;;;;;5083840;28;8825;-80
2022/12/11 00:17:43;;;;;;;;;52.67;48.67;;;;;;;;5083634;28;8952;-80
2022/12/11 00:20:13;;;;;;;;;45.67;43.33;;;;;;;;5085085;28;8803;-80
2022/12/11 00:22:41;;;;;;;;;57.00;50.00;;;;;;;;5085263;28;8838;-81
2022/12/11 00:25:10;;;;;;;;;50.00;46.00;;;;;;;;5085499;28;8836;-80
2022/12/11 00:27:37;;;;;;;;;45.00;42.00;;;;;;;;5083722;28;8838;-81
2022/12/11 00:30:06;;;;;;;;;48.33;46.00;;;;;;;;5087803;28;8846;-81
2022/12/11 00:32:34;;;;;;;;;46.33;45.00;;;;;;;;5086769;28;8836;-81
2022/12/11 00:35:02;;;;;;;;;46.67;43.67;;;;;;;;5086504;28;8855;-81
2022/12/11 00:37:31;;;;;;;;;57.00;50.33;;;;;;;;5085934;28;8856;-81
2022/12/11 00:39:58;;;;;;;;;51.00;44.67;;;;;;;;5087598;28;8848;-81
2022/12/11 00:42:25;;;;;;;;;43.00;35.00;;;;;;;;5086528;28;8840;-81
2022/12/11 00:44:55;;;;;;;;;51.00;47.00;;;;;;;;5088778;28;9015;-81
2022/12/11 00:47:23;;;;;;;;;46.33;43.00;;;;;;;;5087521;28;8865;-81
2022/12/11 00:49:50;;;;;;;;;52.67;44.33;;;;;;;;5087952;28;9032;-81
2022/12/11 00:52:18;;;;;;;;;45.33;42.00;;;;;;;;5087315;28;8844;-81
2022/12/11 00:54:47;;;;;;;;;39.67;38.33;;;;;;;;5086218;28;8833;-80
2022/12/11 00:57:15;;;;;;;;;38.67;35.67;;;;;;;;5086531;28;9741;-81
2022/12/11 00:59:42;;;;;;;;;55.00;48.67;;;;;;;;5086253;28;8817;-81
2022/12/11 01:02:09;;;;;;;;;53.67;47.33;;;;;;;;5086770;28;8836;-81
2022/12/11 01:04:38;;;;;;;;;58.33;49.33;;;;;;;;5086788;28;8836;-80
2022/12/11 01:07:05;;;;;;;;;35.67;34.00;;;;;;;;5087290;28;8860;-80
2022/12/11 01:12:19;;;;;;;;;48.00;43.67;;;;;;;;5086768;28;8820;-81
2022/12/11 01:14:47;;;;;;;;;59.67;49.67;;;;;;;;5089086;28;8986;-81
2022/12/11 01:17:15;;;;;;;;;49.00;43.33;;;;;;;;5084342;28;8833;-81
2022/12/11 01:19:42;;;;;;;;;50.33;46.33;;;;;;;;5089116;28;8852;-81
2022/12/11 01:22:10;;;;;;;;;54.00;48.33;;;;;;;;5086690;28;9609;-81
2022/12/11 01:24:38;;;;;;;;;50.67;46.00;;;;;;;;5086217;28;8983;-81
2022/12/11 01:27:06;;;;;;;;;50.67;47.00;;;;;;;;5087862;28;8985;-81
2022/12/11 01:29:35;;;;;;;;;53.67;43.00;;;;;;;;5088612;28;8843;-81
2022/12/11 01:32:03;;;;;;;;;38.00;33.67;;;;;;;;5085275;28;8858;-81
2022/12/11 01:34:31;;;;;;;;;58.67;50.67;;;;;;;;5088197;27;8878;-81
2022/12/11 01:36:59;;;;;;;;;52.67;45.00;;;;;;;;5085864;28;9601;-80
2022/12/11 01:39:26;;;;;;;;;53.67;46.67;;;;;;;;5084927;28;8824;-81
2022/12/11 01:41:57;;;;;;;;;49.33;46.00;;;;;;;;5088026;28;8963;-79
2022/12/11 01:45:02;;;;;;;;;40.67;38.67;;;;;;;;5086492;28;8874;-81
2022/12/11 01:47:32;;;;;;;;;61.67;51.67;;;;;;;;5086851;28;8951;-81
2022/12/11 01:49:59;;;;;;;;;51.67;43.67;;;;;;;;5084184;28;8841;-82
2022/12/11 01:52:27;;;;;;;;;51.00;43.33;;;;;;;;5083380;28;8844;-80
2022/12/11 01:54:55;;;;;;;;;50.67;45.00;;;;;;;;5088653;28;8848;-81
2022/12/11 01:57:22;;;;;;;;;58.67;44.00;;;;;;;;5085949;28;8844;-81
2022/12/11 02:00:08;;;;;;;;;38.67;34.67;;;;;;;;5084944;28;8852;-82
2022/12/11 02:02:37;;;;;;;;;58.67;43.33;;;;;;;;5071047;28;8858;-81
2022/12/11 02:05:07;;;;;;;;;42.00;38.00;;;;;;;;5089518;28;8982;-81
2022/12/11 02:07:44;;;;;;;;;51.33;39.67;;;;;;;;5086124;28;8860;-81
2022/12/11 02:10:12;;;;;;;;;53.33;46.00;;;;;;;;5084570;28;8906;-81
2022/12/11 02:12:47;;;;;;;;;48.00;41.33;;;;;;;;5084951;28;8846;-81
2022/12/11 02:15:20;;;;;;;;;50.00;42.33;;;;;;;;5087650;28;8853;-81
2022/12/11 02:17:53;;;;;;;;;52.67;42.00;;;;;;;;5085469;28;8845;-81
2022/12/11 02:20:28;;;;;;;;;44.00;36.67;;;;;;;;5083051;28;8936;-82
2022/12/11 02:23:20;;;;;;;;;40.00;36.00;;;;;;;;5085169;28;8800;-80
2022/12/11 02:25:53;;;;;;;;;53.67;42.00;;;;;;;;5081689;28;8851;-81
2022/12/11 02:28:26;;;;;;;;;51.33;47.67;;;;;;;;5085814;28;8836;-81
2022/12/11 02:30:59;;;;;;;;;48.00;43.67;;;;;;;;5083166;28;8840;-81
2022/12/11 02:33:33;;;;;;;;;47.67;43.00;;;;;;;;5087520;28;8851;-81
2022/12/11 02:36:02;;;;;;;;;52.67;43.33;;;;;;;;5085203;28;8859;-81
2022/12/11 02:38:32;;;;;;;;;54.00;44.67;;;;;;;;5086239;28;8856;-81
2022/12/11 02:41:01;;;;;;;;;41.67;38.33;;;;;;;;5084513;28;8849;-80
2022/12/11 02:43:32;;;;;;;;;37.00;37.00;;;;;;;;5084758;28;8891;-81
2022/12/11 02:46:00;;;;;;;;;43.33;40.67;;;;;;;;5084090;28;8832;-81
2022/12/11 02:48:28;;;;;;;;;53.67;45.00;;;;;;;;5086268;28;8860;-81
2022/12/11 02:50:58;;;;;;;;;39.33;38.67;;;;;;;;5066569;28;8958;-81
2022/12/11 02:53:28;;;;;;;;;45.67;40.33;;;;;;;;5085963;28;9587;-81
2022/12/11 02:56:04;;;;;;;;;36.67;36.67;;;;;;;;5085382;28;8859;-81
2022/12/11 02:58:34;;;;;;;;;35.00;30.67;;;;;;;;5086816;28;9730;-81
2022/12/11 03:01:02;;;;;;;;;43.00;41.33;;;;;;;;5083652;28;8844;-81
2022/12/11 03:03:30;;;;;;;;;40.00;36.33;;;;;;;;5085924;28;8863;-80
2022/12/11 03:05:58;;;;;;;;;26.67;26.67;;;;;;;;5085563;28;8860;-80
2022/12/11 03:08:26;;;;;;;;;42.00;37.00;;;;;;;;5083294;28;8930;-81
2022/12/11 03:10:53;;;;;;;;;33.00;33.00;;;;;;;;5084371;28;8846;-81
2022/12/11 03:13:23;;;;;;;;;38.33;36.33;;;;;;;;5085582;28;8826;-81
2022/12/11 03:16:01;;;;;;;;;40.33;38.00;;;;;;;;5083576;28;8833;-81
2022/12/11 03:18:34;;;;;;;;;38.33;34.00;;;;;;;;5083760;28;8836;-81
2022/12/11 03:21:04;;;;;;;;;42.00;35.33;;;;;;;;5083839;28;8834;-81
2022/12/11 03:23:36;;;;;;;;;42.00;40.00;;;;;;;;5086231;28;8848;-81
2022/12/11 03:26:07;;;;;;;;;43.00;39.33;;;;;;;;5082593;28;8871;-80
2022/12/11 03:28:45;;;;;;;;;37.00;34.33;;;;;;;;5086317;28;8852;-81
2022/12/11 03:31:19;;;;;;;;;40.00;40.00;;;;;;;;5082132;28;8832;-81
2022/12/11 03:33:48;;;;;;;;;33.67;33.67;;;;;;;;5083658;28;8966;-80
2022/12/11 03:36:20;;;;;;;;;46.33;43.33;;;;;;;;5085818;28;8838;-80
2022/12/11 03:38:50;;;;;;;;;46.00;43.00;;;;;;;;5065135;28;8826;-80
2022/12/11 03:41:20;;;;;;;;;41.67;37.33;;;;;;;;5082779;28;8840;-80
2022/12/11 03:43:49;;;;;;;;;38.00;34.00;;;;;;;;5083101;28;8860;-80
2022/12/11 03:46:20;;;;;;;;;42.33;41.67;;;;;;;;5082564;28;8867;-79
2022/12/11 03:48:49;;;;;;;;;37.33;37.33;;;;;;;;5082886;28;8861;-80
2022/12/11 03:51:20;;;;;;;;;44.67;43.00;;;;;;;;5085788;28;8894;-80
2022/12/11 03:53:48;;;;;;;;;47.33;43.00;;;;;;;;5090106;28;8890;-80
2022/12/11 03:56:16;;;;;;;;;44.33;40.00;;;;;;;;5084784;28;8852;-80
2022/12/11 03:58:44;;;;;;;;;28.00;28.00;;;;;;;;5085457;28;8882;-81
2022/12/11 04:01:12;;;;;;;;;43.00;39.00;;;;;;;;5083199;28;8878;-80
2022/12/11 04:03:41;;;;;;;;;32.33;32.33;;;;;;;;5084681;28;8910;-80
2022/12/11 04:06:08;;;;;;;;;42.67;41.67;;;;;;;;5089368;28;8871;-80
2022/12/11 04:08:36;;;;;;;;;24.67;24.67;;;;;;;;5090742;28;8856;-80
2022/12/11 04:15:00;;;;;;;;;16.33;16.33;;;;;;;;5088054;28;8813;-80
2022/12/11 04:16:36;;;;;;;;;38.33;37.67;;;;;;;;5085574;28;9650;-80
2022/12/11 04:24:35;;;;;;;;;34.00;34.00;;;;;;;;5087600;28;8820;-80
2022/12/11 04:27:03;;;;;;;;;33.00;33.00;;;;;;;;5091450;28;8813;-81
2022/12/11 04:29:31;;;;;;;;;29.33;29.33;;;;;;;;5087014;28;8842;-80
2022/12/11 04:31:58;;;;;;;;;30.33;30.33;;;;;;;;5087233;28;8858;-80
2022/12/11 04:34:27;;;;;;;;;33.67;30.00;;;;;;;;5086745;28;9712;-80
2022/12/11 04:36:54;;;;;;;;;41.00;41.00;;;;;;;;5088380;28;8838;-80
2022/12/11 04:39:21;;;;;;;;;35.00;30.00;;;;;;;;5085639;28;8962;-81
2022/12/11 04:41:49;;;;;;;;;36.00;36.00;;;;;;;;5089718;28;8826;-81
2022/12/11 04:44:16;;;;;;;;;28.33;26.67;;;;;;;;5087492;28;8868;-81
2022/12/11 04:46:44;;;;;;;;;39.67;38.67;;;;;;;;5087468;28;8906;-81
2022/12/11 04:49:12;;;;;;;;;30.33;30.33;;;;;;;;5084658;28;8832;-80
2022/12/11 04:51:41;;;;;;;;;30.00;29.00;;;;;;;;5086484;28;8829;-81
2022/12/11 04:54:09;;;;;;;;;31.67;29.33;;;;;;;;5086079;28;8971;-81
2022/12/11 04:56:37;;;;;;;;;38.00;34.67;;;;;;;;5085563;28;9669;-81
2022/12/11 04:59:05;;;;;;;;;28.67;28.67;;;;;;;;5091378;28;8830;-81
2022/12/11 05:01:32;;;;;;;;;32.33;28.67;;;;;;;;5087141;28;8860;-80
2022/12/11 05:04:00;;;;;;;;;27.67;26.33;;;;;;;;5091069;28;8891;-80
2022/12/11 05:06:28;;;;;;;;;24.00;24.00;;;;;;;;5084480;28;8862;-80
2022/12/11 05:08:57;;;;;;;;;30.33;28.33;;;;;;;;5083575;28;8894;-81
2022/12/11 05:11:25;;;;;;;;;20.67;20.67;;;;;;;;5086085;28;8852;-81
2022/12/11 05:13:53;;;;;;;;;22.00;21.00;;;;;;;;5085893;28;8975;-81
2022/12/11 05:16:20;;;;;;;;;28.33;26.33;;;;;;;;5086315;28;8832;-81
2022/12/11 05:18:47;;;;;;;;;22.67;22.67;;;;;;;;5086651;28;8872;-81
2022/12/11 05:21:15;;;;;;;;;31.67;27.33;;;;;;;;5087551;28;8824;-81
2022/12/11 05:23:43;;;;;;;;;25.67;25.67;;;;;;;;5087853;28;8872;-81
2022/12/11 05:26:15;;;;;;;;;25.33;25.33;;;;;;;;5088125;28;8993;-81
2022/12/11 05:28:44;;;;;;;;;26.67;26.00;;;;;;;;5088125;28;8864;-81
2022/12/11 05:31:15;;;;;;;;;23.00;23.00;;;;;;;;5086478;28;8832;-80
2022/12/11 05:33:43;;;;;;;;;29.00;28.33;;;;;;;;5088693;28;8870;-81
2022/12/11 05:36:15;;;;;;;;;19.33;19.33;;;;;;;;5086632;28;8870;-81
2022/12/11 05:38:43;;;;;;;;;26.00;23.67;;;;;;;;5089014;28;8997;-81
2022/12/11 05:41:15;;;;;;;;;25.33;25.33;;;;;;;;5086515;28;9586;-81
2022/12/11 05:43:43;;;;;;;;;20.00;20.00;;;;;;;;5085616;28;8845;-81
2022/12/11 05:46:15;;;;;;;;;23.67;23.67;;;;;;;;5086222;28;8864;-80
2022/12/11 05:48:44;;;;;;;;;20.00;20.00;;;;;;;;5085514;28;8839;-81
2022/12/11 05:51:12;;;;;;;;;21.33;21.33;;;;;;;;5087346;28;8890;-81
2022/12/11 05:53:40;;;;;;;;;15.00;10.00;;;;;;;;5088413;28;8855;-81
2022/12/11 05:56:10;;;;;;;;;28.33;25.00;;;;;;;;5086492;28;8852;-81
2022/12/11 05:58:41;;;;;;;;;15.67;14.33;;;;;;;;5082945;28;8833;-81
2022/12/11 06:01:10;;;;;;;;;16.00;16.00;;;;;;;;5089088;28;8929;-81
2022/12/11 06:03:37;;;;;;;;;16.67;16.67;;;;;;;;5087984;28;8860;-81
2022/12/11 06:06:06;;;;;;;;;18.33;18.33;;;;;;;;5086860;28;8838;-81
2022/12/11 06:08:34;;;;;;;;;15.67;15.67;;;;;;;;5086954;28;8848;-81
2022/12/11 06:11:02;;;;;;;;;19.33;18.00;;;;;;;;5085341;28;8826;-81
2022/12/11 06:13:30;;;;;;;;;19.00;19.00;;;;;;;;5085320;28;8857;-81
2022/12/11 06:16:02;;;;;;;;;13.33;13.33;;;;;;;;5085310;28;8848;-81
2022/12/11 06:18:30;;;;;;;;;15.33;15.33;;;;;;;;5086163;28;8837;-80
2022/12/11 06:20:57;;;;;;;;;24.33;19.33;;;;;;;;5086000;28;8856;-81
2022/12/11 06:23:25;;;;;;;;;17.67;17.33;;;;;;;;5083626;28;8860;-80
2022/12/11 06:25:53;;;;;;;;;17.67;16.33;;;;;;;;5083841;28;8903;-81
2022/12/11 06:28:20;;;;;;;;;19.67;17.67;;;;;;;;5084700;28;8833;-81
2022/12/11 06:30:47;;;;;;;;;19.33;19.33;;;;;;;;5089095;28;8864;-81
2022/12/11 06:33:17;;;;;;;;;14.00;14.00;;;;;;;;5083583;28;8852;-81
2022/12/11 06:35:44;;;;;;;;;19.00;19.00;;;;;;;;5084428;28;8972;-81
2022/12/11 06:38:12;;;;;;;;;19.00;19.00;;;;;;;;5119835;27;8865;-81
2022/12/11 06:40:39;;;;;;;;;16.33;16.33;;;;;;;;5084113;28;8907;-81
2022/12/11 06:43:07;;;;;;;;;24.67;23.33;;;;;;;;5086909;28;8840;-81
2022/12/11 06:45:34;;;;;;;;;20.33;18.67;;;;;;;;5083229;28;8849;-81
2022/12/11 06:48:02;;;;;;;;;22.00;22.00;;;;;;;;5085744;28;8968;-81
2022/12/11 06:50:31;;;;;;;;;18.00;18.00;;;;;;;;5083992;28;8896;-80
2022/12/11 06:52:58;;;;;;;;;16.00;14.00;;;;;;;;5085737;28;8845;-81
2022/12/11 06:55:26;;;;;;;;;15.33;15.33;;;;;;;;5085370;28;9617;-81
2022/12/11 06:57:54;;;;;;;;;20.67;20.67;;;;;;;;5099488;28;8860;-81
2022/12/11 07:00:22;;;;;;;;;16.67;16.67;;;;;;;;5086776;28;8870;-81
2022/12/11 07:02:51;;;;;;;;;16.00;16.00;;;;;;;;5086466;28;8900;-80
2022/12/11 07:05:19;;;;;;;;;17.33;17.33;;;;;;;;5082336;28;8836;-81
2022/12/11 07:07:48;;;;;;;;;17.33;17.33;;;;;;;;5085125;28;8880;-80
2022/12/11 07:10:16;;;;;;;;;17.33;17.33;;;;;;;;5084515;28;8841;-81
2022/12/11 07:12:43;;;;;;;;;21.67;21.00;;;;;;;;5115466;27;8822;-81
2022/12/11 07:15:12;;;;;;;;;16.00;16.00;;;;;;;;5085942;28;9646;-79
2022/12/11 07:17:39;;;;;;;;;20.00;19.00;;;;;;;;5083925;28;8860;-81
2022/12/11 07:20:08;;;;;;;;;23.33;23.33;;;;;;;;5085196;28;9784;-81
2022/12/11 07:22:35;;;;;;;;;19.67;19.67;;;;;;;;5084156;28;8861;-81
2022/12/11 07:25:05;;;;;;;;;10.67;9.00;;;;;;;;5086805;28;8860;-80
2022/12/11 07:27:35;;;;;;;;;16.33;14.00;;;;;;;;5083694;28;8867;-81
2022/12/11 07:30:03;;;;;;;;;25.67;24.00;;;;;;;;5084229;28;8844;-81
2022/12/11 07:32:30;;;;;;;;;19.33;19.00;;;;;;;;5082743;28;8977;-81
2022/12/11 07:34:58;;;;;;;;;19.33;18.33;;;;;;;;5083287;28;8854;-81
2022/12/11 07:37:26;;;;;;;;;24.67;23.67;;;;;;;;5080570;28;9629;-81
2022/12/11 07:39:54;;;;;;;;;19.33;19.33;;;;;;;;5088882;28;8851;-80
2022/12/11 07:42:24;;;;;;;;;26.00;24.00;;;;;;;;5087464;28;8890;-80
2022/12/11 07:44:55;;;;;;;;;18.00;18.00;;;;;;;;5090025;28;8846;-82
2022/12/11 07:47:23;;;;;;;;;23.00;22.00;;;;;;;;5092299;28;8848;-82
2022/12/11 07:49:54;;;;;;;;;8.67;8.67;;;;;;;;5090057;28;8995;-82
2022/12/11 07:52:25;;;;;;;;;25.67;24.67;;;;;;;;5089805;28;8944;-82
2022/12/11 07:54:53;;;;;;;;;28.33;24.67;;;;;;;;5089844;28;8848;-82
2022/12/11 07:57:20;;;;;;;;;19.33;19.33;;;;;;;;5121640;27;8879;-82
2022/12/11 07:59:50;;;;;;;;;20.00;18.33;;;;;;;;5090768;28;8849;-82
2022/12/11 08:02:18;;;;;;;;;20.00;20.00;;;;;;;;5088440;28;8859;-82
2022/12/11 08:04:45;;;;;;;;;27.00;25.00;;;;;;;;5090308;28;8841;-82
2022/12/11 08:07:13;;;;;;;;;22.67;20.33;;;;;;;;5087246;28;8974;-82
2022/12/11 08:09:55;;;;;;;;;20.00;20.00;;;;;;;;5089481;28;8987;-82
2022/12/11 08:12:23;;;;;;;;;19.33;19.33;;;;;;;;5089216;28;8844;-82
2022/12/11 08:14:52;;;;;;;;;16.00;13.00;;;;;;;;5085032;28;8850;-82
2022/12/11 08:17:20;;;;;;;;;14.33;13.33;;;;;;;;5086465;28;8842;-82
2022/12/11 08:19:48;;;;;;;;;16.00;14.00;;;;;;;;5088909;28;9646;-82
2022/12/11 08:22:16;;;;;;;;;19.33;18.33;;;;;;;;5083755;28;8817;-82
2022/12/11 08:24:43;;;;;;;;;21.33;21.33;;;;;;;;5088553;28;8988;-82
2022/12/11 08:27:11;;;;;;;;;15.33;14.67;;;;;;;;5086627;28;9004;-82
2022/12/11 08:29:41;;;;;;;;;17.67;16.67;;;;;;;;5086414;28;8844;-82
2022/12/11 08:32:12;;;;;;;;;20.67;20.67;;;;;;;;5087354;28;8840;-81
2022/12/11 08:34:40;;;;;;;;;22.00;21.00;;;;;;;;5087916;28;8872;-82
2022/12/11 08:37:08;;;;;;;;;17.67;17.67;;;;;;;;5087377;28;8891;-82
2022/12/11 08:39:35;;;;;;;;;21.00;19.00;;;;;;;;5088245;28;8988;-80
2022/12/11 08:42:04;;;;;;;;;16.67;16.67;;;;;;;;5088216;28;8976;-82
2022/12/11 08:44:32;;;;;;;;;21.00;21.00;;;;;;;;5084723;28;8840;-81
2022/12/11 08:47:00;;;;;;;;;16.00;15.00;;;;;;;;5088175;28;8847;-82
2022/12/11 08:49:30;;;;;;;;;27.33;27.33;;;;;;;;5100410;27;8860;-81
2022/12/11 08:51:58;;;;;;;;;18.67;17.33;;;;;;;;5089283;28;8860;-81
2022/12/11 08:54:25;;;;;;;;;20.00;20.00;;;;;;;;5084419;28;8862;-82
2022/12/11 08:56:53;;;;;;;;;21.00;19.00;;;;;;;;5085971;28;9644;-81
2022/12/11 08:59:20;;;;;;;;;23.67;23.67;;;;;;;;5086002;28;8968;-80
2022/12/11 09:01:48;;;;;;;;;25.67;25.00;;;;;;;;5087520;28;8856;-80
2022/12/11 09:04:16;;;;;;;;;22.33;21.33;;;;;;;;5086696;28;8851;-81
2022/12/11 09:07:00;;;;;;;;;18.33;18.33;;;;;;;;5087437;28;8874;-79
2022/12/11 09:09:30;;;;;;;;;19.33;19.33;;;;;;;;5085708;28;8840;-71
2022/12/11 09:11:58;;;;;;;;;21.00;21.00;;;;;;;;5087198;28;8852;-74
2022/12/11 09:14:25;;;;;;;;;21.33;19.67;;;;;;;;5085941;28;8925;-74
2022/12/11 09:16:52;;;;;;;;;23.67;23.67;;;;;;;;5085205;28;8840;-72
2022/12/11 09:19:20;;;;;;;;;17.67;17.67;;;;;;;;5086992;28;8846;-75
2022/12/11 09:21:58;;;;;;;;;22.00;20.00;;;;;;;;5087214;28;8818;-74
2022/12/11 09:24:25;;;;;;;;;16.00;16.00;;;;;;;;5088319;28;8901;-74
2022/12/11 09:26:56;;;;;;;;;17.33;17.33;;;;;;;;5085498;28;8844;-73
2022/12/11 09:29:26;;;;;;;;;21.00;21.00;;;;;;;;5086636;28;8860;-73
2022/12/11 09:31:56;;;;;;;;;14.00;14.00;;;;;;;;5085246;28;8850;-74
2022/12/11 09:34:29;;;;;;;;;14.00;14.00;;;;;;;;5084293;28;8838;-75
2022/12/11 09:36:59;;;;;;;;;16.67;16.33;;;;;;;;5084773;28;8893;-74
2022/12/11 09:39:38;;;;;;;;;23.33;23.33;;;;;;;;5113520;27;8926;-72
2022/12/11 09:42:15;;;;;;;;;21.00;20.00;;;;;;;;5087238;28;8929;-72
2022/12/11 09:44:47;;;;;;;;;16.00;16.00;;;;;;;;5085118;28;8810;-72
2022/12/11 09:47:34;;;;;;;;;19.00;17.33;;;;;;;;5088345;28;9668;-73
2022/12/11 09:50:07;;;;;;;;;13.67;13.67;;;;;;;;5088916;28;8998;-73
2022/12/11 09:52:41;;;;;;;;;25.67;17.33;;;;;;;;5086804;28;8971;-73
2022/12/11 09:55:16;;;;;;;;;20.33;20.00;;;;;;;;5084781;28;9727;-73
2022/12/11 09:57:51;;;;;;;;;16.67;16.67;;;;;;;;5068357;28;8848;-73
2022/12/11 10:00:27;;;;;;;;;19.00;19.00;;;;;;;;5083620;28;8828;-74
2022/12/11 10:03:24;;;;;;;;;17.67;17.67;;;;;;;;5082607;28;8812;-73
2022/12/11 10:06:05;;;;;;;;;16.67;16.67;;;;;;;;5069438;28;8902;-73
2022/12/11 10:08:43;;;;;;;;;14.00;13.00;;;;;;;;5083170;28;8833;-73
2022/12/11 10:11:30;;;;;;;;;17.67;17.67;;;;;;;;5083780;28;9837;-73
2022/12/11 10:14:05;;;;;;;;;15.33;15.33;;;;;;;;5080415;28;8858;-74
2022/12/11 10:16:37;;;;;;;;;13.67;13.67;;;;;;;;5083635;28;9597;-74
2022/12/11 10:19:05;;;;;;;;;17.33;14.67;;;;;;;;5086614;28;8822;-74
2022/12/11 10:21:39;;;;;;;;;20.00;20.00;;;;;;;;5086966;28;8806;-74
2022/12/11 10:24:13;;;;;;;;;13.33;12.33;;;;;;;;5082394;28;8864;-72
2022/12/11 10:26:41;;;;;;;;;19.00;19.00;;;;;;;;5085994;28;8863;-73
2022/12/11 10:29:15;;;;;;;;;25.00;24.00;;;;;;;;5085800;28;8839;-74
2022/12/11 10:31:46;;;;;;;;;12.00;12.00;;;;;;;;5085192;28;8983;-73
2022/12/11 10:34:20;;;;;;;;;13.00;13.00;;;;;;;;5086180;28;8979;-74
2022/12/11 10:36:48;;;;;;;;;18.00;18.00;;;;;;;;5085203;28;8846;-74
2022/12/11 10:39:22;;;;;;;;;25.67;25.00;;;;;;;;5082821;28;9761;-73
2022/12/11 10:41:52;;;;;;;;;28.00;28.00;;;;;;;;5082582;28;8975;-73
2022/12/11 10:44:21;;;;;;;;;24.33;22.00;;;;;;;;5082452;28;8829;-73
2022/12/11 10:47:02;;;;;;;;;31.67;28.00;;;;;;;;5083086;28;8950;-74
2022/12/11 10:49:32;;;;;;;;;21.00;21.00;;;;;;;;5081218;28;8836;-73
2022/12/11 10:52:01;;;;;;;;;23.33;23.33;;;;;;;;5078104;28;8863;-74
2022/12/11 10:54:34;;;;;;;;;20.33;20.33;;;;;;;;5084249;28;8801;-74
2022/12/11 10:57:04;;;;;;;;;25.00;25.00;;;;;;;;5082566;28;8844;-73
2022/12/11 10:59:36;;;;;;;;;10.33;10.33;;;;;;;;5086532;28;8844;-72
2022/12/11 11:02:05;;;;;;;;;15.67;15.67;;;;;;;;5084700;28;9184;-72
2022/12/11 11:04:35;;;;;;;;;24.67;24.67;;;;;;;;5083987;28;8905;-71
2022/12/11 11:07:09;;;;;;;;;21.00;21.00;;;;;;;;5086590;28;8973;-73
2022/12/11 11:09:38;;;;;;;;;23.00;22.00;;;;;;;;5082996;28;8836;-72
2022/12/11 11:12:18;;;;;;;;;22.00;22.00;;;;;;;;5086103;28;8837;-73
2022/12/11 11:14:58;;;;;;;;;31.33;27.33;;;;;;;;5085123;28;8863;-73
2022/12/11 11:17:26;;;;;;;;;26.33;26.33;;;;;;;;5084138;28;8858;-73
2022/12/11 11:19:53;;;;;;;;;28.33;27.00;;;;;;;;5082792;28;8872;-73
2022/12/11 11:22:21;;;;;;;;;30.00;28.00;;;;;;;;5087709;28;8995;-73
2022/12/11 11:24:57;;;;;;;;;21.33;21.33;;;;;;;;5082589;28;8810;-73
2022/12/11 11:27:29;;;;;;;;;32.33;31.00;;;;;;;;5082777;28;8844;-73
2022/12/11 11:30:00;;;;;;;;;32.33;31.00;;;;;;;;5084268;28;11169;-73
2022/12/11 11:32:31;;;;;;;;;28.33;28.33;;;;;;;;5085068;28;8982;-73
2022/12/11 11:35:14;;;;;;;;;38.67;36.00;;;;;;;;5083582;28;8860;-73
2022/12/11 11:37:45;;;;;;;;;31.33;30.00;;;;;;;;5084944;28;8848;-72
2022/12/11 11:40:19;;;;;;;;;35.00;28.33;;;;;;;;5085002;28;8864;-73
2022/12/11 11:42:53;;;;;;;;;34.67;33.00;;;;;;;;5084613;28;8912;-74
2022/12/11 11:45:25;;;;;;;;;31.33;31.33;;;;;;;;5118947;27;8832;-72
2022/12/11 11:48:00;;;;;;;;;27.33;27.33;;;;;;;;5083614;28;8864;-73
2022/12/11 11:50:32;;;;;;;;;28.00;26.00;;;;;;;;5086515;28;8994;-73
2022/12/11 11:53:04;;;;;;;;;20.67;20.67;;;;;;;;5084063;28;8850;-71
2022/12/11 11:55:44;;;;;;;;;36.00;35.00;;;;;;;;5083843;28;8836;-73
2022/12/11 11:58:21;;;;;;;;;36.00;33.00;;;;;;;;5081266;28;8909;-72
2022/12/11 12:00:50;;;;;;;;;41.00;37.67;;;;;;;;5083016;28;8978;-74
2022/12/11 12:03:19;;;;;;;;;38.00;36.00;;;;;;;;5083527;28;8843;-70
2022/12/11 12:05:52;;;;;;;;;29.33;28.00;;;;;;;;5083844;28;8824;-74
2022/12/11 12:08:29;;;;;;;;;27.67;27.33;;;;;;;;5081496;28;8832;-72
2022/12/11 12:11:06;;;;;;;;;30.67;30.67;;;;;;;;5081138;28;8887;-73
2022/12/11 12:13:44;;;;;;;;;40.67;34.33;;;;;;;;5085124;28;8997;-71
2022/12/11 12:16:21;;;;;;;;;34.00;34.00;;;;;;;;5080477;28;8856;-70
2022/12/11 12:18:56;;;;;;;;;28.33;28.00;;;;;;;;5085250;28;8870;-69
2022/12/11 12:21:31;;;;;;;;;40.67;38.00;;;;;;;;5082309;28;8880;-70
2022/12/11 12:24:14;;;;;;;;;44.00;34.00;;;;;;;;5085679;28;8864;-74
2022/12/11 12:26:49;;;;;;;;;38.67;35.67;;;;;;;;5085777;28;8890;-69
2022/12/11 12:29:25;;;;;;;;;33.00;31.67;;;;;;;;5090055;28;9783;-69
2022/12/11 12:32:02;;;;;;;;;31.33;31.33;;;;;;;;5086828;28;9176;-71
2022/12/11 12:34:42;;;;;;;;;27.33;27.00;;;;;;;;5088689;28;8843;-70
2022/12/11 12:37:17;;;;;;;;;37.00;34.00;;;;;;;;5085909;28;8848;-70
2022/12/11 12:39:52;;;;;;;;;33.00;30.67;;;;;;;;5087098;28;8821;-70
2022/12/11 12:42:30;;;;;;;;;35.00;30.00;;;;;;;;5086309;28;8844;-71
2022/12/11 12:45:00;;;;;;;;;34.33;29.00;;;;;;;;5084587;28;8821;-70
2022/12/11 12:47:28;;;;;;;;;36.67;32.00;;;;;;;;5084522;28;9901;-71
2022/12/11 12:49:56;;;;;;;;;37.33;27.33;;;;;;;;5085493;28;8966;-69
2022/12/11 12:52:29;;;;;;;;;39.67;33.00;;;;;;;;5086466;28;8845;-73
2022/12/11 12:55:15;;;;;;;;;30.00;30.00;;;;;;;;5085549;28;9626;-73
2022/12/11 12:57:47;;;;;;;;;31.00;30.00;;;;;;;;5084209;28;8859;-71
2022/12/11 13:00:27;;;;;;;;;23.00;20.00;;;;;;;;5083685;28;8856;-72
2022/12/11 13:02:57;;;;;;;;;31.00;26.33;;;;;;;;5087781;28;8837;-72
2022/12/11 13:05:27;;;;;;;;;29.00;26.33;;;;;;;;5084178;28;8836;-72
2022/12/11 13:07:58;;;;;;;;;35.33;33.00;;;;;;;;5088073;28;8845;-73
2022/12/11 13:10:31;;;;;;;;;36.67;33.67;;;;;;;;5085713;28;8933;-74
2022/12/11 13:13:01;;;;;;;;;38.67;36.33;;;;;;;;5083122;28;8942;-73
2022/12/11 13:15:37;;;;;;;;;26.33;25.67;;;;;;;;5083202;28;8840;-73
2022/12/11 13:18:22;;;;;;;;;31.33;31.00;;;;;;;;5082714;28;8876;-73
2022/12/11 13:20:50;;;;;;;;;17.67;17.67;;;;;;;;5083628;28;8916;-73
2022/12/11 13:23:20;;;;;;;;;25.67;22.33;;;;;;;;5082990;28;8837;-73
2022/12/11 13:25:52;;;;;;;;;31.00;27.67;;;;;;;;5085644;28;8840;-73
2022/12/11 13:28:49;;;;;;;;;37.33;29.00;;;;;;;;5086696;28;8855;-73
2022/12/11 13:31:34;;;;;;;;;29.00;28.00;;;;;;;;5085243;28;8817;-74
2022/12/11 13:34:15;;;;;;;;;39.00;35.00;;;;;;;;5087764;28;8848;-73
2022/12/11 13:36:48;;;;;;;;;37.00;37.00;;;;;;;;5084798;28;8836;-72
2022/12/11 13:39:19;;;;;;;;;28.33;26.67;;;;;;;;5084032;28;8964;-74
2022/12/11 13:41:48;;;;;;;;;35.00;26.33;;;;;;;;5083151;28;8849;-74
2022/12/11 13:44:23;;;;;;;;;30.00;30.00;;;;;;;;5087508;28;8840;-73
2022/12/11 13:46:52;;;;;;;;;27.67;27.67;;;;;;;;5085337;28;8905;-74
2022/12/11 13:49:23;;;;;;;;;36.00;27.00;;;;;;;;5084161;28;8848;-74
2022/12/11 13:51:56;;;;;;;;;34.00;29.00;;;;;;;;5085186;28;8837;-74
2022/12/11 13:54:24;;;;;;;;;30.33;29.33;;;;;;;;5082656;28;8856;-74
2022/12/11 13:57:01;;;;;;;;;29.67;26.00;;;;;;;;5081578;28;8872;-75
2022/12/11 13:59:35;;;;;;;;;29.67;26.33;;;;;;;;5085395;28;8871;-74
2022/12/11 14:02:15;;;;;;;;;45.67;38.33;;;;;;;;5080761;28;8990;-74
2022/12/11 14:04:43;;;;;;;;;38.00;30.00;;;;;;;;5083539;28;8845;-74
2022/12/11 14:07:11;;;;;;;;;33.00;27.67;;;;;;;;5081213;28;8830;-74
2022/12/11 14:09:42;;;;;;;;;43.00;36.00;;;;;;;;5083235;28;8916;-74
2022/12/11 14:12:17;;;;;;;;;37.33;34.67;;;;;;;;5086893;28;9613;-74
2022/12/11 14:14:50;;;;;;;;;39.00;35.00;;;;;;;;5085323;28;8868;-73
2022/12/11 14:17:26;;;;;;;;;38.00;31.67;;;;;;;;5084427;28;12369;-74
2022/12/11 14:19:55;;;;;;;;;39.67;32.67;;;;;;;;5079853;28;8844;-74
2022/12/11 14:22:24;;;;;;;;;30.00;24.33;;;;;;;;5083975;28;8868;-75
2022/12/11 14:24:54;;;;;;;;;38.00;28.33;;;;;;;;5082321;28;11546;-75
2022/12/11 14:27:21;;;;;;;;;31.33;27.00;;;;;;;;5080754;28;11549;-74
2022/12/11 14:29:51;;;;;;;;;33.67;32.00;;;;;;;;5082210;28;11579;-75
2022/12/11 14:32:24;;;;;;;;;40.67;37.00;;;;;;;;5080969;28;8974;-73
2022/12/11 14:34:52;;;;;;;;;43.00;35.00;;;;;;;;5076300;28;11568;-74
2022/12/11 14:37:23;;;;;;;;;33.00;30.33;;;;;;;;5085540;28;8833;-74
2022/12/11 14:39:56;;;;;;;;;38.00;34.33;;;;;;;;5083896;28;11655;-74
2022/12/11 14:42:26;;;;;;;;;33.33;28.00;;;;;;;;5079728;28;8841;-73
2022/12/11 14:45:00;;;;;;;;;32.00;32.00;;;;;;;;5082537;28;9625;-74
2022/12/11 14:47:29;;;;;;;;;34.33;32.00;;;;;;;;5084434;28;9649;-74
2022/12/11 14:49:59;;;;;;;;;34.00;30.00;;;;;;;;5083634;28;8844;-74
2022/12/11 14:52:31;;;;;;;;;37.00;35.00;;;;;;;;5084097;28;10206;-72
2022/12/11 14:55:04;;;;;;;;;28.33;28.33;;;;;;;;5084397;28;8806;-72
2022/12/11 14:57:33;;;;;;;;;37.00;30.67;;;;;;;;5084856;28;8834;-74
2022/12/11 15:00:03;;;;;;;;;32.33;29.33;;;;;;;;5086965;28;8845;-73
2022/12/11 15:02:32;;;;;;;;;34.67;32.00;;;;;;;;5081974;28;8825;-73